Time;durP1;ratioP1;P1;durP2;ratioP2;P2;SDS_P1;SDS_P2;PMS_P1;PMS_P2;Temp;Humidity;BMP_temperature;BMP_pressure;BME280_temperature;BME280_humidity;BME280_pressure;Samples;Min_cycle;Max_cycle;Signal;HPM_P1;HPM_P2
2022/12/07 00:01:23;;;;;;;62.10;29.75;;;;;;;6.26;100.00;100768.00;8319240;28;20060;-49
2022/12/07 00:05:23;;;;;;;69.07;32.07;;;;;;;6.30;100.00;100774.88;8304001;28;20073;-51
2022/12/07 00:09:24;;;;;;;63.58;31.08;;;;;;;6.31;100.00;100763.16;8305158;28;20582;-52
2022/12/07 00:13:24;;;;;;;61.88;30.02;;;;;;;6.27;100.00;100756.28;8307421;28;20068;-51
2022/12/07 00:17:25;;;;;;;60.40;30.92;;;;;;;6.22;100.00;100750.38;8314288;28;20033;-51
2022/12/07 00:21:28;;;;;;;60.08;32.33;;;;;;;6.16;100.00;100748.13;8325040;28;20034;-50
2022/12/07 00:25:30;;;;;;;62.38;31.10;;;;;;;6.12;100.00;100746.63;8319297;28;20037;-52
2022/12/07 00:29:30;;;;;;;62.08;31.38;;;;;;;6.15;100.00;100741.03;8323939;28;20096;-52
2022/12/07 00:33:32;;;;;;;66.57;32.28;;;;;;;6.17;100.00;100740.94;8324618;28;20038;-50
2022/12/07 00:37:33;;;;;;;70.03;33.38;;;;;;;6.15;100.00;100730.31;8325286;28;20042;-50
2022/12/07 00:41:34;;;;;;;58.88;30.35;;;;;;;6.18;100.00;100731.91;8325598;28;20530;-50
2022/12/07 00:45:34;;;;;;;67.03;32.33;;;;;;;6.21;100.00;100729.00;8324203;28;20084;-49
2022/12/07 00:49:35;;;;;;;63.13;32.72;;;;;;;6.25;100.00;100734.06;8324867;28;20042;-50
2022/12/07 00:53:36;;;;;;;64.88;32.22;;;;;;;6.25;100.00;100723.31;8324185;28;20488;-50
2022/12/07 00:57:37;;;;;;;62.42;31.90;;;;;;;6.18;100.00;100719.34;8323078;28;20034;-53
2022/12/07 01:01:37;;;;;;;67.38;31.90;;;;;;;6.12;100.00;100727.84;8319234;28;20034;-49
2022/12/07 01:05:38;;;;;;;62.55;32.88;;;;;;;6.15;100.00;100722.25;8302901;28;20038;-52
2022/12/07 01:09:39;;;;;;;69.25;33.20;;;;;;;6.19;100.00;100725.59;8291231;28;20085;-52
2022/12/07 01:13:40;;;;;;;66.95;32.60;;;;;;;6.25;100.00;100730.53;8291037;28;20038;-50
2022/12/07 01:17:41;;;;;;;64.93;32.75;;;;;;;6.26;100.00;100725.06;8311888;28;20033;-50
2022/12/07 01:21:41;;;;;;;64.50;31.60;;;;;;;6.23;100.00;100737.81;8323970;28;20041;-49
2022/12/07 01:25:42;;;;;;;60.97;32.20;;;;;;;6.29;100.00;100727.53;8322937;28;20029;-52
2022/12/07 01:29:43;;;;;;;69.93;32.65;;;;;;;6.33;100.00;100734.38;8323525;28;20045;-50
2022/12/07 01:33:46;;;;;;;66.10;30.67;;;;;;;6.38;100.00;100752.84;8321775;28;20120;-52
2022/12/07 01:37:47;;;;;;;60.33;30.53;;;;;;;6.35;100.00;100737.84;8320757;28;20447;-50
2022/12/07 01:41:47;;;;;;;62.47;31.90;;;;;;;6.36;100.00;100739.53;8322805;28;20037;-49
2022/12/07 01:45:48;;;;;;;60.17;30.33;;;;;;;6.33;100.00;100734.38;8322584;28;20399;-49
2022/12/07 01:49:49;;;;;;;68.95;32.30;;;;;;;6.33;100.00;100731.69;8321967;28;20156;-50
2022/12/07 01:53:50;;;;;;;56.20;30.95;;;;;;;6.34;100.00;100729.88;8322106;28;20064;-51
2022/12/07 01:57:53;;;;;;;54.95;29.65;;;;;;;6.34;100.00;100730.72;8328663;28;20037;-50
2022/12/07 02:01:55;;;;;;;51.77;28.30;;;;;;;6.34;100.00;100730.72;8355307;28;20087;-51
2022/12/07 02:05:59;;;;;;;60.92;29.20;;;;;;;6.36;100.00;100723.44;8354258;28;20514;-50
2022/12/07 02:10:16;;;;;;;56.42;27.30;;;;;;;6.38;100.00;100718.81;8325458;28;20510;-49
2022/12/07 02:14:17;;;;;;;54.35;27.38;;;;;;;6.39;100.00;100717.84;8320607;28;20065;-50
2022/12/07 02:23:12;;;;;;;56.50;28.63;;;;;;;6.39;100.00;100704.41;8320002;28;21082;-50
2022/12/07 02:27:33;;;;;;;60.78;28.38;;;;;;;6.42;100.00;100712.25;8314920;28;20041;-52
2022/12/07 02:31:37;;;;;;;58.58;29.63;;;;;;;6.38;100.00;100708.06;8316210;28;20342;-50
2022/12/07 02:35:44;;;;;;;60.13;32.13;;;;;;;6.40;100.00;100708.81;8315660;28;20029;-50
2022/12/07 02:39:52;;;;;;;56.22;27.80;;;;;;;6.40;100.00;100711.50;8315621;28;20429;-51
2022/12/07 02:43:58;;;;;;;65.68;29.70;;;;;;;6.39;100.00;100712.47;8316393;28;20414;-50
2022/12/07 02:48:00;;;;;;;58.42;29.92;;;;;;;6.40;100.00;100711.50;8316507;28;20049;-51
2022/12/07 02:52:00;;;;;;;58.78;29.02;;;;;;;6.38;100.00;100700.03;8312693;28;20045;-54
2022/12/07 02:56:30;;;;;;;54.75;28.45;;;;;;;6.38;100.00;100694.66;8311212;28;20057;-50
2022/12/07 03:00:45;;;;;;;57.35;30.33;;;;;;;6.40;100.00;100703.44;8314904;28;20522;-50
2022/12/07 03:09:35;;;;;;;64.80;31.23;;;;;;;6.38;100.00;100705.41;8356647;27;20396;-49
2022/12/07 03:14:03;;;;;;;60.87;30.43;;;;;;;6.36;100.00;100706.44;8350031;28;20056;-52
2022/12/07 03:18:05;;;;;;;66.28;31.40;;;;;;;6.34;100.00;100703.03;8382458;28;20060;-51
2022/12/07 03:22:10;;;;;;;71.90;31.00;;;;;;;6.33;100.00;100702.16;8374441;28;20041;-52
2022/12/07 03:26:16;;;;;;;75.75;33.08;;;;;;;6.36;100.00;100706.44;8348606;28;20048;-49
2022/12/07 03:30:20;;;;;;;65.63;34.47;;;;;;;6.34;100.00;100711.94;8353202;28;20041;-51
2022/12/07 03:34:28;;;;;;;69.57;34.80;;;;;;;6.37;100.00;100713.56;8347853;28;20037;-50
2022/12/07 03:38:40;;;;;;;72.80;35.10;;;;;;;6.36;100.00;100711.81;8349376;28;20045;-50
2022/12/07 03:42:41;;;;;;;71.18;33.42;;;;;;;6.36;100.00;100707.31;8348214;28;20045;-52
2022/12/07 03:46:55;;;;;;;73.32;33.38;;;;;;;6.36;100.00;100710.00;8352495;28;20094;-54
2022/12/07 03:51:08;;;;;;;69.53;33.25;;;;;;;6.36;100.00;100707.31;8348150;28;20129;-49
2022/12/07 03:59:29;;;;;;;66.43;33.97;;;;;;;6.36;100.00;100707.31;8404714;27;20936;-49
2022/12/07 04:03:30;;;;;;;70.22;35.63;;;;;;;6.35;100.00;100700.25;8399494;27;20050;-51
2022/12/07 04:07:30;;;;;;;65.80;34.00;;;;;;;6.34;100.00;100697.66;8396523;27;20097;-50
2022/12/07 04:11:31;;;;;;;68.05;31.23;;;;;;;6.33;100.00;100701.28;8398854;27;20036;-49
2022/12/07 04:15:32;;;;;;;58.33;29.52;;;;;;;6.27;100.00;100707.97;8389764;27;20041;-49
2022/12/07 04:19:34;;;;;;;55.47;29.77;;;;;;;6.26;100.00;100705.41;8347463;28;20562;-50
2022/12/07 04:23:34;;;;;;;63.30;31.05;;;;;;;6.26;100.00;100703.59;8348726;28;20037;-50
2022/12/07 04:27:35;;;;;;;58.53;30.85;;;;;;;6.23;100.00;100701.13;8354833;28;20044;-49
2022/12/07 04:31:37;;;;;;;59.20;29.52;;;;;;;6.19;100.00;100701.44;8397460;27;20485;-51
2022/12/07 04:35:37;;;;;;;57.28;29.35;;;;;;;6.20;100.00;100698.66;8398071;27;20040;-49
2022/12/07 04:39:38;;;;;;;54.55;29.15;;;;;;;6.22;100.00;100698.53;8398379;27;20044;-51
2022/12/07 04:43:38;;;;;;;63.22;30.75;;;;;;;6.19;100.00;100696.06;8397824;27;20470;-49
2022/12/07 04:47:39;;;;;;;59.08;29.85;;;;;;;6.15;100.00;100698.09;8397544;27;20032;-49
2022/12/07 04:51:40;;;;;;;60.40;30.92;;;;;;;6.08;100.00;100703.03;8379902;27;20039;-50
2022/12/07 04:55:41;;;;;;;65.25;30.30;;;;;;;6.05;100.00;100697.03;8368021;28;20041;-49
2022/12/07 04:59:42;;;;;;;66.97;29.90;;;;;;;6.02;100.00;100691.88;8380195;27;20036;-49
2022/12/07 05:03:43;;;;;;;58.90;30.35;;;;;;;5.97;100.00;100694.03;8394752;28;20044;-51
2022/12/07 05:07:43;;;;;;;57.78;29.65;;;;;;;5.92;100.00;100701.56;8356259;28;20432;-49
2022/12/07 05:11:44;;;;;;;66.30;31.52;;;;;;;5.89;100.00;100691.03;8306959;28;20041;-49
2022/12/07 05:15:46;;;;;;;68.07;30.63;;;;;;;5.89;100.00;100696.41;8336251;28;20095;-49
2022/12/07 05:19:47;;;;;;;65.03;30.83;;;;;;;5.92;100.00;100696.19;8347991;28;20055;-51
2022/12/07 05:23:48;;;;;;;62.55;30.10;;;;;;;5.97;100.00;100704.75;8344203;28;20037;-52
2022/12/07 05:27:48;;;;;;;67.63;31.05;;;;;;;6.04;100.00;100706.91;8385123;28;20041;-49
2022/12/07 05:31:49;;;;;;;62.97;30.05;;;;;;;6.06;100.00;100703.28;8340947;28;20030;-50
2022/12/07 05:35:49;;;;;;;67.00;30.98;;;;;;;6.07;100.00;100703.13;8305794;28;20526;-49
2022/12/07 05:39:50;;;;;;;65.45;30.33;;;;;;;6.06;100.00;100704.13;8323342;28;20068;-52
2022/12/07 05:43:50;;;;;;;61.17;29.25;;;;;;;6.04;100.00;100712.28;8319282;28;20407;-49
2022/12/07 05:47:51;;;;;;;67.70;29.30;;;;;;;6.04;100.00;100708.75;8347415;28;20062;-50
2022/12/07 05:51:51;;;;;;;59.88;29.20;;;;;;;6.05;100.00;100710.47;8324816;28;20037;-51
2022/12/07 05:55:52;;;;;;;66.35;30.13;;;;;;;6.06;100.00;100705.97;8319624;28;20074;-51
2022/12/07 05:59:52;;;;;;;67.45;30.35;;;;;;;6.02;100.00;100697.25;8329645;28;20045;-49
2022/12/07 06:03:53;;;;;;;46.83;22.90;;;;;;;5.98;100.00;100706.50;8302736;28;20085;-49
2022/12/07 06:07:54;;;;;;;54.00;25.85;;;;;;;5.94;100.00;100702.28;8290894;28;20500;-50
2022/12/07 06:12:56;;;;;;;59.40;27.92;;;;;;;5.94;100.00;100710.34;8290672;28;20042;-49
2022/12/07 06:16:16;;;;;;;60.28;30.23;;;;;;;5.86;100.00;100699.28;8351648;28;20059;-51
2022/12/07 06:20:16;;;;;;;74.28;31.95;;;;;;;5.81;100.00;100696.03;8332253;28;20064;-52
2022/12/07 06:24:17;;;;;;;81.90;32.58;;;;;;;5.78;100.00;100693.56;8353847;28;20041;-50
2022/12/07 06:28:18;;;;;;;73.15;34.50;;;;;;;5.79;100.00;100690.78;8366089;28;20137;-50
2022/12/07 06:32:18;;;;;;;72.45;33.90;;;;;;;5.82;100.00;100697.75;8367162;28;20490;-53
2022/12/07 06:36:19;;;;;;;77.15;33.33;;;;;;;5.77;100.00;100697.22;8360840;28;20033;-50
2022/12/07 06:40:19;;;;;;;77.55;33.28;;;;;;;5.77;100.00;100694.53;8353294;28;20126;-53
2022/12/07 06:44:21;;;;;;;82.97;34.10;;;;;;;5.77;100.00;100694.53;8347229;28;20582;-58
2022/12/07 06:48:22;;;;;;;86.88;33.65;;;;;;;5.78;100.00;100696.25;8350213;28;20398;-51
2022/12/07 06:52:23;;;;;;;91.45;36.67;;;;;;;5.77;100.00;100698.06;8351835;28;20037;-54
2022/12/07 06:56:23;;;;;;;69.18;31.63;;;;;;;5.74;100.00;100698.25;8350067;28;20037;-54
2022/12/07 07:00:24;;;;;;;70.13;31.08;;;;;;;5.74;100.00;100708.16;8356024;28;20049;-50
2022/12/07 07:04:24;;;;;;;82.70;34.00;;;;;;;5.75;100.00;100704.50;8346223;28;20053;-50
2022/12/07 07:08:25;;;;;;;74.43;32.35;;;;;;;5.74;100.00;100702.78;8353697;28;20132;-53
2022/12/07 07:12:25;;;;;;;71.93;30.75;;;;;;;5.72;100.00;100710.06;8350594;28;20490;-51
2022/12/07 07:16:26;;;;;;;64.95;30.73;;;;;;;5.69;100.00;100712.97;8353894;28;20336;-50
2022/12/07 07:20:26;;;;;;;64.43;31.33;;;;;;;5.71;100.00;100716.41;8351689;28;20052;-50
2022/12/07 07:24:27;;;;;;;70.97;31.60;;;;;;;5.73;100.00;100711.78;8351880;28;20032;-51
2022/12/07 07:28:27;;;;;;;68.60;32.47;;;;;;;5.77;100.00;100718.69;8351769;28;20386;-51
2022/12/07 07:32:28;;;;;;;67.00;33.03;;;;;;;5.80;100.00;100713.09;8338206;28;20064;-51
2022/12/07 07:36:28;;;;;;;74.85;32.00;;;;;;;5.86;100.00;100716.22;8340677;28;20056;-51
2022/12/07 07:40:30;;;;;;;66.82;32.65;;;;;;;5.84;100.00;100722.69;8350113;28;20040;-50
2022/12/07 07:44:30;;;;;;;67.18;31.70;;;;;;;5.81;100.00;100712.13;8351225;28;20044;-53
2022/12/07 07:48:31;;;;;;;60.08;29.20;;;;;;;5.79;100.00;100720.28;8351276;28;20471;-51
2022/12/07 07:52:32;;;;;;;56.67;27.17;;;;;;;5.76;100.00;100716.94;8351780;28;20037;-51
2022/12/07 07:56:32;;;;;;;60.10;27.60;;;;;;;5.75;100.00;100731.31;8353028;28;20491;-51
2022/12/07 08:00:33;;;;;;;60.97;26.67;;;;;;;5.72;100.00;100726.16;8356693;28;20091;-51
2022/12/07 08:04:33;;;;;;;62.97;26.83;;;;;;;5.64;100.00;100723.13;8352986;28;20041;-52
2022/12/07 08:08:34;;;;;;;60.03;27.13;;;;;;;5.61;100.00;100728.72;8352763;28;20029;-52
2022/12/07 08:12:37;;;;;;;60.25;26.50;;;;;;;5.64;100.00;100728.50;8350541;28;20040;-51
2022/12/07 08:16:38;;;;;;;60.57;26.97;;;;;;;5.70;100.00;100725.41;8353067;28;20068;-51
2022/12/07 08:20:40;;;;;;;54.75;25.35;;;;;;;5.94;100.00;100718.38;8350858;28;20037;-53
2022/12/07 08:24:40;;;;;;;60.65;27.73;;;;;;;6.15;100.00;100724.94;8345539;28;20040;-50
2022/12/07 08:28:41;;;;;;;58.17;27.08;;;;;;;6.40;100.00;100726.75;8356623;28;20052;-51
2022/12/07 08:32:43;;;;;;;55.65;27.15;;;;;;;6.58;100.00;100728.09;8352624;28;20094;-51
2022/12/07 08:36:44;;;;;;;60.33;25.77;;;;;;;6.61;100.00;100726.06;8350933;28;20063;-54
2022/12/07 08:40:45;;;;;;;57.97;24.33;;;;;;;6.88;100.00;100734.81;8352114;28;20382;-53
2022/12/07 08:44:45;;;;;;;46.28;22.55;;;;;;;6.71;100.00;100735.16;8355892;28;20033;-53
2022/12/07 08:48:58;;;;;;;52.20;24.33;;;;;;;6.58;100.00;100734.34;8356629;28;20494;-52
2022/12/07 08:53:00;;;;;;;53.40;23.27;;;;;;;7.28;100.00;100725.53;8359058;28;20547;-51
2022/12/07 08:57:00;;;;;;;49.00;25.40;;;;;;;8.48;100.00;100727.81;8359267;28;20040;-51
2022/12/07 09:01:02;;;;;;;47.15;21.95;;;;;;;9.73;95.14;100723.63;8391041;28;20533;-52
2022/12/07 09:05:03;;;;;;;35.90;19.98;;;;;;;10.46;89.92;100723.53;8372129;28;20522;-51
2022/12/07 09:09:03;;;;;;;34.55;18.08;;;;;;;10.37;88.08;100730.59;8343127;28;20033;-51
2022/12/07 09:13:04;;;;;;;34.95;17.48;;;;;;;9.01;93.92;100729.72;8357452;28;20044;-54
2022/12/07 09:17:09;;;;;;;42.55;19.17;;;;;;;7.87;100.00;100751.44;8353123;28;20045;-52
2022/12/07 09:21:10;;;;;;;38.40;18.45;;;;;;;7.68;100.00;100736.81;8345346;28;20041;-54
2022/12/07 09:25:11;;;;;;;49.33;21.15;;;;;;;9.60;94.99;100736.41;8358088;28;20037;-50
2022/12/07 09:29:11;;;;;;;31.55;15.98;;;;;;;9.15;93.87;100738.41;8375640;28;20035;-53
2022/12/07 09:33:12;;;;;;;38.03;18.55;;;;;;;8.56;97.67;100745.09;8376864;28;20126;-52
2022/12/07 09:37:12;;;;;;;36.00;18.58;;;;;;;8.04;99.08;100740.22;8316288;28;20037;-51
2022/12/07 09:41:13;;;;;;;35.28;18.80;;;;;;;8.05;100.00;100747.31;8353416;28;20037;-52
2022/12/07 09:45:20;;;;;;;40.80;18.30;;;;;;;8.40;99.12;100732.94;8357426;28;20033;-54
2022/12/07 09:49:25;;;;;;;35.38;17.40;;;;;;;8.52;97.20;100743.63;8357436;28;20051;-53
2022/12/07 09:53:29;;;;;;;32.65;17.83;;;;;;;9.46;91.26;100734.03;8345315;28;20026;-54
2022/12/07 09:57:34;;;;;;;31.63;16.80;;;;;;;8.88;94.70;100734.41;8329432;28;20453;-50
2022/12/07 10:01:35;;;;;;;29.50;16.08;;;;;;;8.74;94.99;100738.22;8369681;28;20123;-52
2022/12/07 10:05:42;;;;;;;30.95;14.80;;;;;;;8.67;93.99;100736.16;8356551;28;20045;-54
2022/12/07 10:09:43;;;;;;;28.20;14.52;;;;;;;7.81;98.10;100719.59;8389798;28;20043;-52
2022/12/07 10:13:48;;;;;;;25.33;14.13;;;;;;;7.37;100.00;100722.16;8344873;28;20037;-52
2022/12/07 10:17:51;;;;;;;25.77;14.25;;;;;;;7.43;100.00;100710.94;8350337;28;20037;-54
2022/12/07 10:22:16;;;;;;;25.95;14.02;;;;;;;8.94;95.57;100717.75;8355581;28;20102;-50
2022/12/07 10:26:35;;;;;;;25.75;13.20;;;;;;;8.76;95.37;100711.16;8355633;28;20043;-50
2022/12/07 10:30:59;;;;;;;24.35;11.70;;;;;;;9.68;88.36;100705.09;8384709;28;20037;-52
2022/12/07 10:39:41;;;;;;;20.52;11.82;;;;;;;9.97;91.87;100686.38;8315824;28;20399;-51
2022/12/07 10:43:52;;;;;;;19.83;10.70;;;;;;;11.33;83.14;100692.03;8304701;28;20041;-49
2022/12/07 10:48:15;;;;;;;22.92;10.43;;;;;;;11.19;81.24;100689.75;8306697;28;20069;-50
2022/12/07 10:57:26;;;;;;;17.23;9.05;;;;;;;12.52;75.17;100690.59;8408337;27;20476;-55
2022/12/07 11:01:48;;;;;;;19.90;9.02;;;;;;;12.58;74.83;100681.88;8366046;28;20057;-49
2022/12/07 11:06:03;;;;;;;18.13;9.90;;;;;;;12.46;75.29;100680.34;8365806;28;20383;-50
2022/12/07 11:10:22;;;;;;;;;;;;;;;11.38;79.37;100665.38;8366586;28;20033;-53
2022/12/07 11:14:33;;;;;;;21.00;12.23;;;;;;;9.88;84.45;100662.88;8365051;28;19924;-53
2022/12/07 11:19:03;;;;;;;29.60;14.25;;;;;;;10.49;86.37;100655.69;8394813;27;20093;-53
2022/12/07 11:23:32;;;;;;;25.55;13.32;;;;;;;9.54;87.41;100653.25;8394651;28;20037;-50
2022/12/07 11:28:01;;;;;;;31.00;15.18;;;;;;;8.33;93.59;100645.53;8390157;27;20044;-53
2022/12/07 11:32:42;;;;;;;34.03;15.43;;;;;;;8.08;96.91;100650.16;8377364;27;20060;-52
2022/12/07 11:36:48;;;;;;;30.50;13.98;;;;;;;7.86;98.78;100642.06;8377877;27;20036;-49
2022/12/07 11:40:51;;;;;;;33.05;14.65;;;;;;;7.77;99.65;100641.91;8411247;27;20082;-53
2022/12/07 11:45:16;;;;;;;25.83;11.70;;;;;;;7.67;99.12;100639.09;8396982;27;20107;-51
2022/12/07 11:49:48;;;;;;;29.33;13.10;;;;;;;7.68;100.00;100638.13;8373195;28;20044;-54
2022/12/07 11:53:54;;;;;;;25.17;11.75;;;;;;;7.74;99.81;100637.63;8406298;28;20115;-50
2022/12/07 11:58:04;;;;;;;34.63;14.80;;;;;;;7.96;100.00;100632.28;8391515;27;20040;-53
2022/12/07 12:02:15;;;;;;;23.55;13.57;;;;;;;8.00;99.06;100622.97;8397116;27;20055;-53
2022/12/07 12:06:15;;;;;;;26.67;14.02;;;;;;;7.95;98.87;100625.19;8401854;27;20045;-50
2022/12/07 12:10:23;;;;;;;37.85;16.67;;;;;;;7.62;100.00;100625.13;8391891;28;20143;-50
2022/12/07 12:15:04;;;;;;;28.65;15.82;;;;;;;7.50;100.00;100623.41;8394891;28;20036;-54
2022/12/07 12:19:28;;;;;;;31.35;17.15;;;;;;;7.44;100.00;100614.97;8360243;28;20098;-53
2022/12/07 12:23:48;;;;;;;37.50;17.60;;;;;;;7.45;100.00;100625.59;8395279;28;20036;-50
2022/12/07 12:27:50;;;;;;;34.10;17.73;;;;;;;7.60;100.00;100612.78;8412915;28;20112;-50
2022/12/07 12:32:16;;;;;;;33.90;17.48;;;;;;;7.79;100.00;100611.25;8361527;28;20043;-50
2022/12/07 12:40:40;;;;;;;37.58;16.42;;;;;;;7.98;100.00;100608.78;8313699;28;20469;-49
2022/12/07 12:45:01;;;;;;;32.30;15.82;;;;;;;8.00;100.00;100597.91;8314697;28;20288;-49
2022/12/07 12:49:25;;;;;;;29.85;16.30;;;;;;;7.99;100.00;100601.56;8313297;28;20099;-51
2022/12/07 12:53:26;;;;;;;;;;;;;;;8.00;100.00;100589.84;8316279;28;20121;-49
2022/12/07 12:57:31;;;;;;;27.38;14.05;;;;;;;8.07;100.00;100588.34;8314358;28;20023;-50
2022/12/07 13:01:42;;;;;;;21.38;12.27;;;;;;;8.01;99.91;100587.03;8315829;28;20045;-50
2022/12/07 13:05:42;;;;;;;25.55;13.48;;;;;;;7.78;100.00;100584.44;8316180;28;20029;-50
2022/12/07 13:09:45;;;;;;;32.55;15.02;;;;;;;7.53;100.00;100577.44;8315107;28;20065;-50
2022/12/07 13:13:45;;;;;;;28.98;15.48;;;;;;;7.30;100.00;100585.59;8313357;28;20033;-52
2022/12/07 13:22:37;;;;;;;31.48;14.05;;;;;;;7.06;100.00;100566.81;8400826;27;20767;-51
2022/12/07 13:26:42;;;;;;;30.55;13.15;;;;;;;7.08;100.00;100562.16;8395424;27;20036;-51
2022/12/07 13:30:48;;;;;;;27.70;13.73;;;;;;;7.15;100.00;100560.75;8394599;27;20029;-50
2022/12/07 13:34:48;;;;;;;29.42;14.05;;;;;;;7.31;100.00;100561.25;8384988;27;20033;-53
2022/12/07 13:38:55;;;;;;;24.70;12.18;;;;;;;7.35;100.00;100554.66;8392899;28;20028;-50
2022/12/07 13:42:59;;;;;;;26.50;12.55;;;;;;;7.35;100.00;100549.28;8441195;27;20123;-50
2022/12/07 13:47:23;;;;;;;27.52;16.63;;;;;;;7.42;100.00;100544.28;8442739;27;20035;-49
2022/12/07 13:51:27;;;;;;;36.97;17.42;;;;;;;7.36;100.00;100539.38;8379199;27;20567;-53
2022/12/07 13:55:29;;;;;;;32.83;19.00;;;;;;;7.32;100.00;100538.75;8364554;28;20036;-50
2022/12/07 13:59:33;;;;;;;38.25;19.00;;;;;;;7.31;100.00;100537.06;8396963;27;20036;-50
2022/12/07 14:03:35;;;;;;;32.33;16.27;;;;;;;7.30;100.00;100532.66;8397474;27;20041;-50
2022/12/07 14:07:49;;;;;;;25.75;14.95;;;;;;;7.28;100.00;100523.84;8397936;27;20040;-51
2022/12/07 14:11:53;;;;;;;42.13;20.55;;;;;;;7.27;100.00;100527.53;8396663;27;20409;-52
2022/12/07 14:15:53;;;;;;;69.68;27.30;;;;;;;7.28;100.00;100521.16;8397138;27;20064;-49
2022/12/07 14:20:00;;;;;;;52.97;23.15;;;;;;;7.25;100.00;100521.41;8383912;27;20044;-49
2022/12/07 14:24:20;;;;;;;39.50;18.00;;;;;;;7.23;100.00;100517.13;8387587;28;20072;-49
2022/12/07 14:28:29;;;;;;;33.30;17.08;;;;;;;7.23;100.00;100517.13;8395394;27;20617;-51
2022/12/07 14:32:31;;;;;;;36.25;19.35;;;;;;;7.22;100.00;100505.50;8378333;27;20556;-50
2022/12/07 14:36:31;;;;;;;47.67;21.67;;;;;;;7.25;100.00;100515.16;8376884;28;20035;-51
2022/12/07 14:40:32;;;;;;;29.02;14.48;;;;;;;7.21;100.00;100508.31;8390955;28;20086;-52
2022/12/07 14:44:32;;;;;;;40.63;19.67;;;;;;;7.18;100.00;100497.81;8389973;28;20049;-49
2022/12/07 14:48:33;;;;;;;22.77;13.98;;;;;;;7.15;100.00;100498.91;8388562;28;20064;-52
2022/12/07 14:52:34;;;;;;;28.83;15.00;;;;;;;7.14;100.00;100499.88;8356961;28;20495;-49
2022/12/07 14:56:34;;;;;;;27.10;13.95;;;;;;;7.08;100.00;100486.91;8373331;28;20498;-49
2022/12/07 15:00:35;;;;;;;25.58;11.95;;;;;;;6.99;100.00;100487.66;8369643;28;20069;-49
2022/12/07 15:04:35;;;;;;;24.33;11.73;;;;;;;6.91;100.00;100486.50;8374316;28;20045;-52
2022/12/07 15:08:36;;;;;;;23.05;11.15;;;;;;;6.90;100.00;100482.97;8371464;28;20063;-50
2022/12/07 15:12:36;;;;;;;22.58;12.07;;;;;;;6.89;100.00;100477.72;8363747;28;20506;-52
2022/12/07 15:16:40;;;;;;;28.13;13.27;;;;;;;6.85;100.00;100474.41;8376263;28;20111;-52
2022/12/07 15:20:40;;;;;;;23.27;13.67;;;;;;;6.83;100.00;100476.34;8352234;28;20067;-53
2022/12/07 15:24:41;;;;;;;27.00;14.25;;;;;;;6.81;100.00;100483.69;8355176;28;20081;-51
2022/12/07 15:28:41;;;;;;;24.92;13.05;;;;;;;6.81;100.00;100482.81;8366442;28;20037;-49
2022/12/07 15:32:42;;;;;;;30.02;14.13;;;;;;;6.82;100.00;100485.38;8369643;28;20029;-49
2022/12/07 15:36:43;;;;;;;30.83;15.50;;;;;;;6.82;100.00;100485.38;8375176;28;20036;-49
2022/12/07 15:40:46;;;;;;;31.67;15.27;;;;;;;6.78;100.00;100478.53;8381774;28;20036;-49
2022/12/07 15:45:18;;;;;;;25.87;15.63;;;;;;;6.76;100.00;100479.63;8373078;28;20067;-49
2022/12/07 15:49:13;;;;;;;26.80;15.82;;;;;;;6.76;100.00;100485.84;8369712;27;20044;-51
2022/12/07 15:53:14;;;;;;;13.18;8.32;;;;;;;6.54;100.00;100479.53;8345715;28;20055;-51
2022/12/07 15:57:15;;;;;;;11.85;6.38;;;;;;;6.26;100.00;100470.03;8340318;28;20046;-48
2022/12/07 16:01:18;;;;;;;12.00;7.47;;;;;;;6.13;100.00;100471.91;8369252;28;20043;-49
2022/12/07 16:05:19;;;;;;;12.55;8.50;;;;;;;6.07;100.00;100463.47;8388256;28;20089;-48
2022/12/07 16:09:20;;;;;;;18.38;10.27;;;;;;;6.02;100.00;100453.06;8391897;28;20028;-48
2022/12/07 16:13:21;;;;;;;28.83;16.45;;;;;;;6.01;100.00;100451.38;8358791;28;20633;-50
2022/12/07 16:17:21;;;;;;;27.92;15.10;;;;;;;6.01;100.00;100454.88;8352529;28;20068;-48
2022/12/07 16:21:22;;;;;;;25.58;14.27;;;;;;;6.04;100.00;100456.50;8353457;28;20392;-49
2022/12/07 16:25:22;;;;;;;27.88;13.10;;;;;;;6.00;100.00;100446.94;8352392;28;20435;-48
2022/12/07 16:29:23;;;;;;;24.13;14.20;;;;;;;5.99;100.00;100445.25;8344756;28;20040;-51
2022/12/07 16:33:24;;;;;;;26.27;16.38;;;;;;;5.91;100.00;100442.25;8344311;28;20422;-48
2022/12/07 16:37:24;;;;;;;40.17;18.58;;;;;;;5.91;100.00;100444.94;8362264;28;20740;-51
2022/12/07 16:41:25;;;;;;;39.47;21.40;;;;;;;5.94;100.00;100442.03;8368114;28;20036;-48
2022/12/07 16:45:25;;;;;;;36.97;21.75;;;;;;;5.96;100.00;100445.47;8368637;28;20037;-48
2022/12/07 16:49:26;;;;;;;35.20;20.27;;;;;;;5.93;100.00;100435.84;8368143;28;20533;-49
2022/12/07 16:53:26;;;;;;;40.50;20.10;;;;;;;5.93;100.00;100446.56;8363134;28;20036;-50
2022/12/07 16:57:27;;;;;;;36.47;19.65;;;;;;;5.95;100.00;100441.09;8384303;28;20037;-48
2022/12/07 17:01:28;;;;;;;31.08;17.45;;;;;;;5.94;100.00;100434.00;8361672;28;20040;-49
2022/12/07 17:05:29;;;;;;;33.67;16.08;;;;;;;5.96;100.00;100440.09;8367393;28;20422;-48
2022/12/07 17:09:29;;;;;;;27.88;15.98;;;;;;;6.02;100.00;100434.28;8369975;28;20479;-48
2022/12/07 17:17:54;;;;;;;30.65;17.20;;;;;;;6.06;100.00;100446.50;8353304;28;20083;-48
2022/12/07 17:21:55;;;;;;;27.23;15.93;;;;;;;6.03;100.00;100436.84;8350569;28;20141;-48
2022/12/07 17:25:55;;;;;;;29.70;17.25;;;;;;;6.06;100.00;100433.06;8349504;28;20040;-49
2022/12/07 17:29:56;;;;;;;37.08;18.00;;;;;;;6.12;100.00;100424.56;8357074;28;20029;-49
2022/12/07 17:33:56;;;;;;;34.30;18.33;;;;;;;6.18;100.00;100418.75;8382436;28;20040;-50
2022/12/07 17:37:57;;;;;;;32.65;17.80;;;;;;;6.21;100.00;100418.50;8387082;28;20418;-50
2022/12/07 17:42:58;;;;;;;38.58;18.23;;;;;;;6.22;100.00;100406.78;8368234;28;20321;-50
2022/12/07 17:46:18;;;;;;;31.70;17.15;;;;;;;6.20;100.00;100406.06;8373150;28;20049;-50
2022/12/07 17:53:09;;;;;;;30.00;16.42;;;;;;;6.14;100.00;100409.22;8364738;28;20103;-49
2022/12/07 17:54:39;;;;;;;28.48;16.83;;;;;;;6.09;100.00;100408.69;8373354;28;20033;-49
2022/12/07 17:58:39;;;;;;;33.78;16.77;;;;;;;6.10;100.00;100398.84;8344353;28;20033;-49
2022/12/07 18:02:40;;;;;;;28.67;14.23;;;;;;;6.10;100.00;100394.31;8367106;28;20453;-51
2022/12/07 18:06:41;;;;;;;31.17;15.63;;;;;;;6.07;100.00;100396.38;8371866;28;20236;-49
2022/12/07 18:10:41;;;;;;;34.80;16.10;;;;;;;6.08;100.00;100401.63;8373847;28;20305;-49
2022/12/07 18:14:42;;;;;;;36.30;15.55;;;;;;;6.14;100.00;100390.44;8374480;28;20051;-49
2022/12/07 18:18:44;;;;;;;38.50;16.70;;;;;;;6.21;100.00;100399.72;8372679;28;20037;-48
2022/12/07 18:22:45;;;;;;;37.45;18.30;;;;;;;6.23;100.00;100392.44;8370054;28;20060;-49
2022/12/07 18:26:47;;;;;;;32.75;18.23;;;;;;;6.20;100.00;100387.28;8385606;28;20491;-49
2022/12/07 18:30:50;;;;;;;36.25;18.63;;;;;;;6.11;100.00;100373.69;8344648;28;20456;-50
2022/12/07 18:34:50;;;;;;;43.03;19.55;;;;;;;6.07;100.00;100378.44;8387197;28;20169;-51
2022/12/07 18:38:51;;;;;;;35.53;19.70;;;;;;;6.07;100.00;100383.78;8373169;28;20200;-50
2022/12/07 18:42:51;;;;;;;36.17;18.98;;;;;;;6.09;100.00;100376.50;8373915;28;20037;-50
2022/12/07 18:46:52;;;;;;;31.23;18.05;;;;;;;6.12;100.00;100375.41;8372426;28;20099;-51
2022/12/07 18:51:11;;;;;;;36.58;18.98;;;;;;;6.11;100.00;100379.94;8373303;28;20033;-49
2022/12/07 19:05:49;;;;;;;47.03;22.42;;;;;;;5.98;100.00;100373.78;8350972;28;20196;-50
2022/12/07 19:09:49;;;;;;;50.47;22.95;;;;;;;5.93;100.00;100362.53;8360861;28;20029;-49
2022/12/07 19:13:50;;;;;;;44.72;22.40;;;;;;;5.94;100.00;100350.81;8376891;28;20062;-52
2022/12/07 19:17:51;;;;;;;43.20;21.92;;;;;;;5.93;100.00;100357.16;8370537;28;20487;-51
2022/12/07 19:21:51;;;;;;;45.85;21.60;;;;;;;5.95;100.00;100355.25;8359019;28;20033;-49